createdAt,value
2023-05-09T00:01:32.218Z,11.60
2023-05-09T00:04:01.026Z,11.50
2023-05-09T00:06:29.525Z,11.50
2023-05-09T00:08:57.671Z,11.40
2023-05-09T00:11:26.258Z,11.40
2023-05-09T00:13:55.866Z,11.30
2023-05-09T00:16:24.977Z,11.30
2023-05-09T00:18:53.306Z,11.30
2023-05-09T00:21:21.414Z,11.20
2023-05-09T00:23:49.636Z,11.20
2023-05-09T00:26:18.244Z,11.20
2023-05-09T00:28:46.730Z,11.30
2023-05-09T00:31:16.552Z,11.30
2023-05-09T00:33:44.837Z,11.30
2023-05-09T00:36:13.104Z,11.20
2023-05-09T00:38:41.503Z,11.20
2023-05-09T00:41:09.789Z,11.20
2023-05-09T00:43:38.092Z,11.10
2023-05-09T00:46:06.343Z,11.00
2023-05-09T00:48:36.718Z,11.00
2023-05-09T00:51:05.272Z,10.90
2023-05-09T00:53:34.437Z,10.90
2023-05-09T00:56:03.113Z,10.90
2023-05-09T00:58:31.548Z,10.80
2023-05-09T01:01:02.230Z,10.80
2023-05-09T01:03:31.260Z,10.70
2023-05-09T01:06:12.646Z,10.70
2023-05-09T01:08:47.992Z,10.70
2023-05-09T01:11:24.505Z,10.60
2023-05-09T01:14:06.246Z,10.60
2023-05-09T01:16:42.723Z,10.60
2023-05-09T01:19:27.356Z,10.50
2023-05-09T01:21:59.881Z,10.50
2023-05-09T01:25:00.753Z,10.50
2023-05-09T01:27:38.590Z,10.50
2023-05-09T01:30:11.606Z,10.40
2023-05-09T01:32:41.648Z,10.40
2023-05-09T01:35:15.424Z,10.40
2023-05-09T01:37:45.925Z,10.40
2023-05-09T01:40:16.812Z,10.40
2023-05-09T01:42:48.671Z,10.40
2023-05-09T01:45:20.280Z,10.40
2023-05-09T01:47:49.995Z,10.40
2023-05-09T01:50:20.009Z,10.40
2023-05-09T01:52:50.121Z,10.40
2023-05-09T01:55:20.617Z,10.40
2023-05-09T01:57:50.197Z,10.40
2023-05-09T02:00:21.053Z,10.40
2023-05-09T02:02:49.837Z,10.40
2023-05-09T02:05:19.559Z,10.40
2023-05-09T02:07:48.774Z,10.30
2023-05-09T02:10:17.471Z,10.30
2023-05-09T02:12:45.821Z,10.30
2023-05-09T02:15:14.438Z,10.20
2023-05-09T02:17:44.332Z,10.20
2023-05-09T02:20:13.420Z,10.20
2023-05-09T02:22:43.429Z,10.10
2023-05-09T02:25:15.584Z,10.10
2023-05-09T02:27:46.464Z,10.00
2023-05-09T02:30:20.694Z,10.10
2023-05-09T02:32:54.621Z,10.00
2023-05-09T02:35:24.564Z,10.00
2023-05-09T02:37:53.704Z,10.00
2023-05-09T02:40:23.224Z,9.90
2023-05-09T02:42:51.336Z,9.90
2023-05-09T02:45:19.664Z,9.90
2023-05-09T02:47:49.297Z,9.90
2023-05-09T02:50:17.645Z,9.80
2023-05-09T02:52:46.074Z,9.80
2023-05-09T02:55:14.734Z,9.70
2023-05-09T02:57:44.371Z,9.70
2023-05-09T03:00:13.638Z,9.60
2023-05-09T03:02:42.217Z,9.60
2023-05-09T03:05:18.403Z,9.50
2023-05-09T03:07:46.641Z,9.50
2023-05-09T03:10:14.947Z,9.40
2023-05-09T03:12:44.662Z,9.40
2023-05-09T03:15:13.856Z,9.40
2023-05-09T03:17:43.917Z,9.30
2023-05-09T03:20:12.895Z,9.30
2023-05-09T03:22:42.504Z,9.30
2023-05-09T03:25:12.868Z,9.20
2023-05-09T03:27:41.313Z,9.20
2023-05-09T03:30:14.837Z,9.10
2023-05-09T03:32:44.809Z,9.10
2023-05-09T03:35:13.274Z,9.10
2023-05-09T03:37:43.520Z,9.10
2023-05-09T03:40:12.669Z,9.00
2023-05-09T03:42:51.196Z,9.00
2023-05-09T03:45:19.418Z,8.90
2023-05-09T03:47:48.618Z,8.80
2023-05-09T03:50:17.327Z,8.80
2023-05-09T03:52:47.540Z,8.70
2023-05-09T03:55:18.502Z,8.70
2023-05-09T03:57:46.764Z,8.60
2023-05-09T04:00:15.554Z,8.60
2023-05-09T04:02:51.465Z,8.60
2023-05-09T04:05:29.647Z,8.50
2023-05-09T04:08:00.149Z,8.50
2023-05-09T04:10:28.428Z,8.50
2023-05-09T04:12:56.874Z,8.50
2023-05-09T04:15:25.742Z,8.50
2023-05-09T04:17:54.125Z,8.50
2023-05-09T04:20:22.665Z,8.50
2023-05-09T04:22:51.277Z,8.50
2023-05-09T04:25:23.570Z,8.60
2023-05-09T04:27:52.296Z,8.60
2023-05-09T04:30:21.326Z,8.60
2023-05-09T04:32:50.132Z,8.60
2023-05-09T04:35:20.683Z,8.60
2023-05-09T04:37:50.541Z,8.60
2023-05-09T04:40:19.129Z,8.70
2023-05-09T04:42:57.370Z,8.70
2023-05-09T04:45:28.354Z,8.70
2023-05-09T04:47:59.000Z,8.70
2023-05-09T04:50:27.483Z,8.80
2023-05-09T04:52:55.795Z,8.80
2023-05-09T04:55:24.330Z,8.90
2023-05-09T04:57:53.221Z,8.90
2023-05-09T05:00:23.022Z,9.00
2023-05-09T05:02:51.387Z,9.00
2023-05-09T05:05:24.974Z,9.10
2023-05-09T05:07:55.277Z,9.20
2023-05-09T05:10:27.755Z,9.30
2023-05-09T05:13:03.914Z,9.30
2023-05-09T05:15:33.588Z,9.50
2023-05-09T05:18:02.799Z,9.50
2023-05-09T05:20:35.410Z,9.60
2023-05-09T05:23:03.735Z,9.70
2023-05-09T05:25:32.308Z,9.80
2023-05-09T05:28:02.125Z,9.80
2023-05-09T05:30:32.746Z,9.90
2023-05-09T05:33:04.470Z,10.00
2023-05-09T05:35:32.875Z,10.10
2023-05-09T05:38:01.601Z,10.20
2023-05-09T05:40:30.263Z,10.30
2023-05-09T05:43:01.713Z,10.40
2023-05-09T05:45:31.479Z,10.40
2023-05-09T05:48:02.520Z,10.50
2023-05-09T05:50:34.128Z,10.60
2023-05-09T05:53:02.445Z,10.70
2023-05-09T05:55:30.963Z,10.80
2023-05-09T05:57:59.395Z,10.80
2023-05-09T06:00:27.701Z,10.90
2023-05-09T06:03:02.684Z,11.00
2023-05-09T06:05:52.720Z,11.10
2023-05-09T06:08:20.891Z,11.20
2023-05-09T06:10:49.020Z,11.30
2023-05-09T06:13:17.482Z,11.30
2023-05-09T06:15:50.251Z,11.40
2023-05-09T06:18:19.196Z,11.50
2023-05-09T06:20:47.336Z,11.60
2023-05-09T06:23:22.181Z,11.60
2023-05-09T06:25:50.588Z,11.70
2023-05-09T06:28:18.815Z,11.80
2023-05-09T06:30:47.018Z,11.90
2023-05-09T06:33:16.195Z,12.00
2023-05-09T06:35:44.458Z,12.00
2023-05-09T06:38:12.954Z,12.10
2023-05-09T06:40:42.672Z,12.10
2023-05-09T06:43:10.790Z,12.20
2023-05-09T06:45:38.945Z,12.30
2023-05-09T06:48:07.783Z,12.40
2023-05-09T06:50:36.007Z,12.50
2023-05-09T06:53:04.285Z,12.50
2023-05-09T06:55:32.523Z,12.60
2023-05-09T06:58:02.068Z,12.70
2023-05-09T07:00:30.264Z,12.80
2023-05-09T07:02:58.488Z,12.90
2023-05-09T07:05:26.850Z,12.90
2023-05-09T07:07:55.564Z,13.00
2023-05-09T07:10:23.878Z,13.20
2023-05-09T07:12:52.219Z,13.20
2023-05-09T07:15:36.893Z,13.30
2023-05-09T07:18:09.025Z,13.30
2023-05-09T07:20:37.436Z,13.40
2023-05-09T07:23:06.051Z,13.40
2023-05-09T07:25:34.551Z,13.50
2023-05-09T07:28:02.834Z,13.60
2023-05-09T07:30:32.402Z,13.60
2023-05-09T07:33:01.607Z,13.70
2023-05-09T07:35:30.115Z,13.80
2023-05-09T07:37:58.322Z,13.80
2023-05-09T07:40:26.549Z,13.90
2023-05-09T07:42:56.968Z,14.00
2023-05-09T07:45:25.231Z,14.00
2023-05-09T07:47:55.015Z,14.10
2023-05-09T07:50:23.848Z,14.20
2023-05-09T07:52:52.876Z,14.30
2023-05-09T07:55:21.302Z,14.40
2023-05-09T07:57:49.639Z,14.50
2023-05-09T08:00:23.520Z,14.60
2023-05-09T08:02:52.259Z,14.70
2023-05-09T08:05:22.065Z,14.70
2023-05-09T08:07:50.393Z,14.80
2023-05-09T08:10:18.571Z,14.90
2023-05-09T08:12:46.934Z,15.00
2023-05-09T08:15:15.378Z,15.00
2023-05-09T08:17:44.101Z,15.20
2023-05-09T08:20:13.830Z,15.30
2023-05-09T08:22:43.507Z,15.30
2023-05-09T08:25:14.322Z,15.50
2023-05-09T08:27:42.662Z,15.50
2023-05-09T08:30:12.037Z,15.60
2023-05-09T08:32:40.620Z,15.60
2023-05-09T08:35:09.818Z,15.70
2023-05-09T08:37:38.372Z,15.80
2023-05-09T08:40:10.078Z,15.80
2023-05-09T08:42:40.171Z,15.90
2023-05-09T08:45:11.536Z,16.00
2023-05-09T08:47:40.434Z,16.10
2023-05-09T08:50:10.186Z,16.20
2023-05-09T08:52:38.671Z,16.30
2023-05-09T08:55:09.115Z,16.40
2023-05-09T08:57:37.503Z,16.50
2023-05-09T09:00:07.171Z,16.50
2023-05-09T09:02:38.158Z,16.60
2023-05-09T09:05:16.138Z,16.70
2023-05-09T09:07:52.583Z,16.80
2023-05-09T09:10:25.801Z,16.80
2023-05-09T09:12:57.493Z,16.90
2023-05-09T09:15:30.014Z,17.00
2023-05-09T09:18:01.265Z,17.00
2023-05-09T09:20:32.932Z,17.10
2023-05-09T09:23:02.172Z,17.20
2023-05-09T09:25:31.811Z,17.30
2023-05-09T09:27:59.958Z,17.30
2023-05-09T09:30:29.318Z,17.40
2023-05-09T09:33:00.581Z,17.50
2023-05-09T09:35:29.021Z,17.50
2023-05-09T09:38:00.220Z,17.60
2023-05-09T09:40:28.650Z,17.70
2023-05-09T09:42:58.251Z,17.90
2023-05-09T09:45:27.778Z,18.00
2023-05-09T09:47:56.142Z,18.00
2023-05-09T09:50:25.499Z,18.10
2023-05-09T09:52:55.794Z,18.20
2023-05-09T09:55:26.172Z,18.20
2023-05-09T09:57:54.286Z,18.30
2023-05-09T10:00:28.345Z,18.40
2023-05-09T10:02:58.690Z,18.50
2023-05-09T10:05:28.484Z,18.50
2023-05-09T10:07:57.731Z,18.60
2023-05-09T10:10:28.739Z,18.70
2023-05-09T10:12:59.645Z,18.70
2023-05-09T10:15:41.520Z,18.90
2023-05-09T10:18:18.300Z,18.90
2023-05-09T10:20:47.152Z,19.00
2023-05-09T10:23:17.627Z,19.10
2023-05-09T10:25:49.013Z,19.20
2023-05-09T10:28:21.538Z,19.20
2023-05-09T10:30:58.697Z,19.30
2023-05-09T10:33:32.148Z,19.40
2023-05-09T10:36:03.495Z,19.50
2023-05-09T10:38:31.969Z,19.60
2023-05-09T10:41:01.460Z,19.70
2023-05-09T10:43:31.177Z,19.80
2023-05-09T10:46:02.446Z,19.90
2023-05-09T10:48:31.119Z,20.00
2023-05-09T10:50:59.932Z,20.00
2023-05-09T10:53:43.572Z,20.00
2023-05-09T10:56:24.242Z,20.10
2023-05-09T10:58:52.659Z,20.10
2023-05-09T11:01:32.957Z,20.20
2023-05-09T11:04:02.502Z,20.30
2023-05-09T11:06:46.281Z,20.40
2023-05-09T11:09:27.215Z,20.50
2023-05-09T11:11:57.518Z,20.60
2023-05-09T11:14:40.944Z,20.70
2023-05-09T11:17:12.434Z,20.80
2023-05-09T11:19:59.119Z,20.90
2023-05-09T11:22:28.653Z,21.00
2023-05-09T11:25:05.490Z,21.00
2023-05-09T11:27:40.887Z,21.10
2023-05-09T11:30:10.830Z,21.10
2023-05-09T11:32:46.153Z,21.20
2023-05-09T11:35:15.998Z,21.20
2023-05-09T11:37:49.367Z,21.10
2023-05-09T11:40:18.782Z,21.10
2023-05-09T11:42:49.466Z,21.20
2023-05-09T11:45:18.538Z,21.30
2023-05-09T11:47:49.165Z,21.30
2023-05-09T11:50:19.304Z,21.40
2023-05-09T11:52:48.181Z,21.50
2023-05-09T11:55:18.027Z,21.60
2023-05-09T11:57:48.930Z,21.80
2023-05-09T12:00:18.433Z,21.80
2023-05-09T12:02:48.575Z,21.90
2023-05-09T12:05:19.464Z,22.00
2023-05-09T12:07:48.863Z,22.00
2023-05-09T12:10:18.323Z,22.10
2023-05-09T12:12:47.865Z,22.20
2023-05-09T12:15:17.686Z,22.30
2023-05-09T12:17:51.312Z,22.30
2023-05-09T12:20:20.810Z,22.30
2023-05-09T12:22:54.601Z,22.50
2023-05-09T12:25:24.046Z,22.50
2023-05-09T12:27:54.661Z,22.60
2023-05-09T12:30:23.251Z,22.70
2023-05-09T12:32:53.317Z,22.70
2023-05-09T12:35:23.574Z,22.80
2023-05-09T12:37:59.668Z,22.80
2023-05-09T12:40:28.598Z,22.90
2023-05-09T12:43:00.951Z,23.10
2023-05-09T12:45:29.479Z,23.10
2023-05-09T12:48:00.902Z,23.30
2023-05-09T12:50:34.967Z,23.20
2023-05-09T12:53:04.362Z,23.10
2023-05-09T12:55:32.926Z,23.20
2023-05-09T12:58:02.675Z,23.30
2023-05-09T13:00:42.459Z,23.40
2023-05-09T13:03:25.152Z,23.50
2023-05-09T13:05:57.808Z,23.70
2023-05-09T13:08:26.493Z,23.80
2023-05-09T13:11:04.082Z,23.90
2023-05-09T13:13:36.917Z,24.00
2023-05-09T13:16:06.909Z,24.10
2023-05-09T13:18:37.758Z,24.20
2023-05-09T13:21:05.986Z,24.20
2023-05-09T13:23:34.290Z,24.30
2023-05-09T13:26:02.676Z,24.40
2023-05-09T13:28:30.986Z,24.50
2023-05-09T13:31:00.211Z,24.60
2023-05-09T13:33:28.752Z,24.80
2023-05-09T13:35:58.514Z,24.90
2023-05-09T13:38:26.746Z,24.90
2023-05-09T13:40:55.151Z,25.00
2023-05-09T13:43:24.115Z,25.30
2023-05-09T13:45:52.413Z,25.90
2023-05-09T13:48:20.550Z,26.90
2023-05-09T13:50:48.674Z,28.10
2023-05-09T13:53:18.182Z,29.50
2023-05-09T13:55:47.282Z,31.10
2023-05-09T13:58:15.375Z,32.40
2023-05-09T14:00:43.683Z,33.50
2023-05-09T14:03:11.934Z,34.40
2023-05-09T14:05:40.251Z,35.20
2023-05-09T14:08:08.761Z,35.60
2023-05-09T14:10:38.398Z,35.80
2023-05-09T14:13:08.530Z,36.50
2023-05-09T14:15:36.860Z,36.80
2023-05-09T14:18:05.373Z,36.60
2023-05-09T14:20:36.223Z,37.00
2023-05-09T14:23:04.514Z,37.20
2023-05-09T14:25:32.746Z,37.30
2023-05-09T14:28:02.237Z,37.20
2023-05-09T14:30:30.330Z,37.40
2023-05-09T14:32:58.442Z,37.40
2023-05-09T14:35:27.504Z,37.70
2023-05-09T14:37:55.695Z,37.90
2023-05-09T14:40:24.106Z,38.20
2023-05-09T14:42:52.293Z,38.30
2023-05-09T14:45:21.895Z,38.40
2023-05-09T14:47:50.082Z,38.30
2023-05-09T14:50:18.519Z,38.40
2023-05-09T14:52:46.676Z,38.40
2023-05-09T14:55:14.881Z,38.30
2023-05-09T14:57:43.281Z,38.50
2023-05-09T15:00:21.093Z,38.20
2023-05-09T15:02:51.407Z,37.90
2023-05-09T15:05:19.794Z,38.10
2023-05-09T15:07:47.853Z,38.30
2023-05-09T15:10:16.156Z,38.20
2023-05-09T15:12:44.991Z,37.70
2023-05-09T15:15:15.241Z,37.60
2023-05-09T15:17:44.249Z,37.60
2023-05-09T15:20:15.831Z,37.20
2023-05-09T15:22:44.568Z,37.10
2023-05-09T15:25:12.986Z,36.90
2023-05-09T15:27:41.140Z,36.40
2023-05-09T15:30:10.812Z,36.00
2023-05-09T15:32:41.415Z,35.80
2023-05-09T15:35:10.323Z,35.50
2023-05-09T15:37:40.106Z,35.10
2023-05-09T15:40:09.433Z,34.60
2023-05-09T15:42:38.772Z,34.10
2023-05-09T15:45:07.756Z,33.50
2023-05-09T15:47:35.953Z,33.00
2023-05-09T15:50:04.543Z,32.40
2023-05-09T15:52:32.583Z,31.70
2023-05-09T15:55:02.288Z,31.30
2023-05-09T15:57:30.578Z,31.40
2023-05-09T15:59:58.609Z,31.90
2023-05-09T16:02:28.459Z,32.50
2023-05-09T16:04:56.575Z,33.00
2023-05-09T16:07:25.821Z,33.20
2023-05-09T16:09:54.399Z,33.30
2023-05-09T16:12:25.135Z,33.50
2023-05-09T16:14:53.135Z,33.70
2023-05-09T16:17:21.384Z,33.90
2023-05-09T16:19:49.510Z,33.90
2023-05-09T16:22:17.899Z,33.80
2023-05-09T16:24:46.751Z,33.80
2023-05-09T16:27:15.211Z,33.70
2023-05-09T16:29:45.626Z,33.70
2023-05-09T16:32:13.682Z,33.70
2023-05-09T16:34:41.715Z,34.00
2023-05-09T16:37:09.751Z,34.20
2023-05-09T16:39:37.784Z,34.30
2023-05-09T16:42:05.960Z,34.30
2023-05-09T16:44:34.074Z,34.60
2023-05-09T16:47:03.506Z,34.80
2023-05-09T16:49:31.575Z,34.70
2023-05-09T16:52:00.471Z,34.60
2023-05-09T16:54:28.544Z,34.40
2023-05-09T16:56:56.671Z,34.00
2023-05-09T16:59:24.748Z,33.60
2023-05-09T17:01:53.827Z,33.40
2023-05-09T17:04:23.237Z,33.10
2023-05-09T17:06:51.909Z,32.70
2023-05-09T17:09:19.935Z,32.20
2023-05-09T17:11:48.283Z,31.70
2023-05-09T17:14:16.325Z,31.20
2023-05-09T17:16:44.722Z,30.70
2023-05-09T17:19:12.741Z,30.10
2023-05-09T17:21:42.151Z,29.70
2023-05-09T17:24:10.488Z,29.20
2023-05-09T17:26:39.005Z,28.80
2023-05-09T17:29:07.165Z,28.60
2023-05-09T17:31:35.255Z,28.20
2023-05-09T17:34:04.190Z,27.90
2023-05-09T17:36:33.516Z,27.50
2023-05-09T17:39:02.983Z,27.00
2023-05-09T17:41:31.156Z,26.70
2023-05-09T17:43:59.276Z,26.50
2023-05-09T17:46:27.409Z,26.30
2023-05-09T17:48:55.465Z,26.00
2023-05-09T17:51:23.579Z,25.60
2023-05-09T17:53:52.890Z,25.20
2023-05-09T17:56:22.724Z,24.70
2023-05-09T17:58:53.035Z,24.30
2023-05-09T18:01:21.360Z,23.90
2023-05-09T18:03:49.894Z,23.60
2023-05-09T18:06:19.363Z,23.20
2023-05-09T18:08:47.506Z,22.90
2023-05-09T18:11:15.772Z,22.60
2023-05-09T18:13:45.192Z,22.20
2023-05-09T18:16:13.400Z,21.90
2023-05-09T18:18:41.590Z,21.60
2023-05-09T18:21:09.791Z,21.30
2023-05-09T18:23:38.129Z,21.00
2023-05-09T18:26:06.430Z,20.70
2023-05-09T18:28:39.377Z,20.30
2023-05-09T18:31:11.920Z,20.10
2023-05-09T18:33:41.004Z,19.90
2023-05-09T18:36:11.189Z,19.60
2023-05-09T18:38:40.989Z,19.50
2023-05-09T18:41:10.420Z,19.30
2023-05-09T18:43:42.061Z,19.20
2023-05-09T18:46:13.130Z,19.00
2023-05-09T18:48:41.433Z,19.00
2023-05-09T18:51:10.126Z,18.90
2023-05-09T18:53:38.340Z,18.70
2023-05-09T18:56:06.766Z,18.60
2023-05-09T18:58:34.970Z,18.40
2023-05-09T19:01:03.628Z,18.30
2023-05-09T19:03:33.384Z,18.20
2023-05-09T19:06:01.679Z,18.20
2023-05-09T19:08:30.553Z,18.10
2023-05-09T19:10:58.847Z,18.00
2023-05-09T19:13:27.183Z,17.90
2023-05-09T19:15:55.739Z,17.80
2023-05-09T19:18:24.507Z,17.70
2023-05-09T19:20:54.292Z,17.60
2023-05-09T19:23:22.690Z,17.60
2023-05-09T19:25:51.987Z,17.50
2023-05-09T19:28:20.401Z,17.40
2023-05-09T19:30:48.640Z,17.30
2023-05-09T19:33:17.115Z,17.30
2023-05-09T19:35:45.647Z,17.20
2023-05-09T19:38:15.460Z,17.10
2023-05-09T19:40:43.691Z,17.00
2023-05-09T19:43:12.767Z,17.00
2023-05-09T19:45:41.800Z,16.90
2023-05-09T19:48:15.122Z,16.80
2023-05-09T19:50:45.004Z,16.80
2023-05-09T19:53:14.432Z,16.80
2023-05-09T19:55:46.760Z,16.70
2023-05-09T19:58:17.795Z,16.60
2023-05-09T20:00:46.238Z,16.60
2023-05-09T20:03:14.428Z,16.50
2023-05-09T20:05:42.638Z,16.40
2023-05-09T20:08:10.901Z,16.40
2023-05-09T20:10:40.328Z,16.30
2023-05-09T20:13:08.557Z,16.20
2023-05-09T20:15:36.675Z,16.10
2023-05-09T20:18:07.095Z,16.10
2023-05-09T20:20:35.462Z,16.00
2023-05-09T20:23:03.567Z,16.00
2023-05-09T20:25:31.696Z,15.90
2023-05-09T20:28:01.165Z,15.90
2023-05-09T20:30:29.758Z,15.80
2023-05-09T20:32:58.630Z,15.70
2023-05-09T20:35:26.826Z,15.60
2023-05-09T20:37:55.795Z,15.50
2023-05-09T20:40:24.110Z,15.50
2023-05-09T20:42:52.766Z,15.50
2023-05-09T20:45:22.472Z,15.40
2023-05-09T20:47:50.830Z,15.40
2023-05-09T20:50:19.177Z,15.40
2023-05-09T20:52:47.279Z,15.30
2023-05-09T20:55:15.425Z,15.20
2023-05-09T20:57:43.435Z,15.10
2023-05-09T21:00:12.532Z,15.20
2023-05-09T21:02:42.279Z,15.10
2023-05-09T21:05:10.953Z,15.10
2023-05-09T21:07:39.029Z,15.00
2023-05-09T21:10:10.185Z,14.90
2023-05-09T21:12:38.242Z,14.80
2023-05-09T21:15:07.486Z,14.80
2023-05-09T21:17:35.626Z,14.80
2023-05-09T21:20:05.554Z,14.80
2023-05-09T21:22:33.710Z,14.70
2023-05-09T21:25:01.756Z,14.70
2023-05-09T21:27:31.345Z,14.70
2023-05-09T21:29:59.690Z,14.70
2023-05-09T21:32:28.625Z,14.60
2023-05-09T21:34:56.768Z,14.60
2023-05-09T21:37:26.259Z,14.50
2023-05-09T21:39:54.508Z,14.50
2023-05-09T21:42:24.018Z,14.50
2023-05-09T21:44:52.182Z,14.40
2023-05-09T21:47:20.477Z,14.40
2023-05-09T21:49:48.653Z,14.40
2023-05-09T21:52:18.409Z,14.40
2023-05-09T21:54:47.875Z,14.30
2023-05-09T21:57:15.902Z,14.30
2023-05-09T21:59:44.241Z,14.30
2023-05-09T22:02:12.416Z,14.30
2023-05-09T22:04:41.008Z,14.20
2023-05-09T22:07:09.383Z,14.20
2023-05-09T22:09:37.587Z,14.20
2023-05-09T22:12:07.642Z,14.20
2023-05-09T22:14:45.171Z,14.10
2023-05-09T22:17:21.038Z,14.10
2023-05-09T22:19:49.207Z,14.10
2023-05-09T22:22:17.622Z,14.10
2023-05-09T22:24:45.938Z,14.00
2023-05-09T22:27:15.408Z,14.10
2023-05-09T22:29:43.495Z,14.00
2023-05-09T22:32:11.823Z,14.00
2023-05-09T22:34:40.049Z,14.00
2023-05-09T22:37:08.241Z,14.00
2023-05-09T22:39:36.320Z,13.90
2023-05-09T22:42:04.697Z,13.90
2023-05-09T22:44:34.119Z,13.90
2023-05-09T22:47:02.258Z,13.90
2023-05-09T22:49:30.292Z,13.90
2023-05-09T22:51:58.372Z,13.90
2023-05-09T22:54:26.862Z,13.90
2023-05-09T22:56:55.002Z,13.90
2023-05-09T22:59:23.809Z,13.80
2023-05-09T23:01:53.557Z,13.80
2023-05-09T23:04:21.774Z,13.90
2023-05-09T23:06:49.835Z,13.90
2023-05-09T23:09:17.886Z,13.90
2023-05-09T23:11:46.032Z,13.80
2023-05-09T23:14:14.177Z,13.80
2023-05-09T23:16:42.384Z,13.90
2023-05-09T23:19:11.908Z,13.90
2023-05-09T23:21:39.959Z,13.90
2023-05-09T23:24:09.113Z,13.80
2023-05-09T23:26:37.149Z,13.90
2023-05-09T23:29:05.180Z,13.90
2023-05-09T23:31:33.559Z,13.90
2023-05-09T23:34:01.646Z,13.90
2023-05-09T23:36:31.512Z,13.90
2023-05-09T23:38:59.578Z,13.90
2023-05-09T23:41:27.719Z,13.90
2023-05-09T23:43:58.025Z,13.90
2023-05-09T23:46:26.293Z,13.80
2023-05-09T23:48:54.375Z,13.80
2023-05-09T23:51:22.906Z,13.80
2023-05-09T23:53:52.440Z,13.80
2023-05-09T23:56:20.595Z,13.70
2023-05-09T23:58:48.699Z,13.70
